createdAt,value
2022-11-20T00:01:10.511Z,-0.06
2022-11-20T00:03:36.936Z,-0.05
2022-11-20T00:06:05.585Z,-0.05
2022-11-20T00:08:31.976Z,-0.05
2022-11-20T00:10:58.407Z,-0.03
2022-11-20T00:13:24.815Z,-0.05
2022-11-20T00:15:58.401Z,-0.06
2022-11-20T00:18:24.852Z,-0.04
2022-11-20T00:20:51.254Z,-0.03
2022-11-20T00:23:17.712Z,-0.06
2022-11-20T00:25:44.145Z,-0.05
2022-11-20T00:28:10.539Z,-0.08
2022-11-20T00:30:36.954Z,-0.08
2022-11-20T00:33:03.577Z,-0.06
2022-11-20T00:35:29.984Z,-0.08
2022-11-20T00:37:56.395Z,-0.13
2022-11-20T00:40:22.800Z,-0.19
2022-11-20T00:42:49.194Z,-0.22
2022-11-20T00:45:15.605Z,-0.27
2022-11-20T00:47:42.012Z,-0.34
2022-11-20T00:50:08.817Z,-0.34
2022-11-20T00:52:35.219Z,-0.33
2022-11-20T00:55:01.613Z,-0.34
2022-11-20T00:57:27.997Z,-0.33
2022-11-20T00:59:54.396Z,-0.36
2022-11-20T01:02:20.799Z,-0.38
2022-11-20T01:04:47.251Z,-0.41
2022-11-20T01:07:13.839Z,-0.42
2022-11-20T01:09:40.290Z,-0.41
2022-11-20T01:12:06.806Z,-0.39
2022-11-20T01:14:33.220Z,-0.38
2022-11-20T01:16:59.640Z,-0.37
2022-11-20T01:19:26.253Z,-0.36
2022-11-20T01:21:54.693Z,-0.33
2022-11-20T01:24:22.484Z,-0.32
2022-11-20T01:26:51.209Z,-0.30
2022-11-20T01:29:24.036Z,-0.28
2022-11-20T01:31:51.200Z,-0.26
2022-11-20T01:34:18.717Z,-0.26
2022-11-20T01:36:45.965Z,-0.25
2022-11-20T01:39:20.675Z,-0.23
2022-11-20T01:42:09.935Z,-0.20
2022-11-20T01:44:42.948Z,-0.17
2022-11-20T01:47:10.503Z,-0.17
2022-11-20T01:49:43.312Z,-0.13
2022-11-20T01:52:16.533Z,-0.14
2022-11-20T01:54:47.303Z,-0.13
2022-11-20T01:57:14.326Z,-0.10
2022-11-20T01:59:44.556Z,-0.09
2022-11-20T02:02:11.078Z,-0.05
2022-11-20T02:04:37.563Z,-0.03
2022-11-20T02:07:05.888Z,0.00
2022-11-20T02:09:32.533Z,0.05
2022-11-20T02:11:59.118Z,0.06
2022-11-20T02:14:26.239Z,0.10
2022-11-20T02:16:52.847Z,0.11
2022-11-20T02:19:31.576Z,0.13
2022-11-20T02:22:32.318Z,0.15
2022-11-20T02:25:01.933Z,0.18
2022-11-20T02:27:28.427Z,0.19
2022-11-20T02:29:58.649Z,0.20
2022-11-20T02:32:28.115Z,0.22
2022-11-20T02:34:54.670Z,0.24
2022-11-20T02:37:21.856Z,0.25
2022-11-20T02:39:50.468Z,0.25
2022-11-20T02:42:16.941Z,0.26
2022-11-20T02:44:43.538Z,0.27
2022-11-20T02:47:10.479Z,0.28
2022-11-20T02:49:36.896Z,0.29
2022-11-20T02:52:03.455Z,0.31
2022-11-20T02:54:29.976Z,0.33
2022-11-20T02:56:56.517Z,0.34
2022-11-20T02:59:23.236Z,0.32
2022-11-20T03:01:49.845Z,0.34
2022-11-20T03:04:16.360Z,0.36
2022-11-20T03:06:42.871Z,0.38
2022-11-20T03:09:09.281Z,0.38
2022-11-20T03:11:35.696Z,0.37
2022-11-20T03:14:05.904Z,0.35
2022-11-20T03:16:32.713Z,0.36
2022-11-20T03:18:59.627Z,0.34
2022-11-20T03:21:26.317Z,0.32
2022-11-20T03:23:54.807Z,0.32
2022-11-20T03:26:23.392Z,0.32
2022-11-20T03:28:55.126Z,0.31
2022-11-20T03:31:25.184Z,0.32
2022-11-20T03:33:51.838Z,0.35
2022-11-20T03:36:19.548Z,0.33
2022-11-20T03:38:46.339Z,0.32
2022-11-20T03:41:21.626Z,0.32
2022-11-20T03:43:52.809Z,0.31
2022-11-20T03:46:19.499Z,0.31
2022-11-20T03:48:51.154Z,0.31
2022-11-20T03:51:20.992Z,0.30
2022-11-20T03:53:48.673Z,0.28
2022-11-20T03:56:17.434Z,0.23
2022-11-20T03:58:44.203Z,0.19
2022-11-20T04:01:16.456Z,0.13
2022-11-20T04:03:43.440Z,0.07
2022-11-20T04:06:12.306Z,0.04
2022-11-20T04:08:39.121Z,0.01
2022-11-20T04:11:19.774Z,-0.03
2022-11-20T04:13:57.704Z,-0.04
2022-11-20T04:16:25.296Z,-0.06
2022-11-20T04:18:58.601Z,-0.12
2022-11-20T04:21:25.873Z,-0.14
2022-11-20T04:23:56.058Z,-0.13
2022-11-20T04:26:24.403Z,-0.14
2022-11-20T04:28:51.003Z,-0.14
2022-11-20T04:31:20.257Z,-0.15
2022-11-20T04:33:46.959Z,-0.15
2022-11-20T04:36:15.771Z,-0.17
2022-11-20T04:38:42.576Z,-0.19
2022-11-20T04:41:15.818Z,-0.22
2022-11-20T04:43:42.235Z,-0.23
2022-11-20T04:46:08.698Z,-0.22
2022-11-20T04:48:35.704Z,-0.22
2022-11-20T04:51:04.855Z,-0.21
2022-11-20T04:53:31.255Z,-0.20
2022-11-20T04:56:08.637Z,-0.19
2022-11-20T04:58:35.559Z,-0.19
2022-11-20T05:01:03.564Z,-0.20
2022-11-20T05:03:30.343Z,-0.20
2022-11-20T05:05:56.765Z,-0.21
2022-11-20T05:08:23.436Z,-0.21
2022-11-20T05:10:49.838Z,-0.22
2022-11-20T05:13:16.241Z,-0.21
2022-11-20T05:15:42.674Z,-0.22
2022-11-20T05:18:09.161Z,-0.21
2022-11-20T05:20:37.136Z,-0.23
2022-11-20T05:23:03.576Z,-0.23
2022-11-20T05:25:30.009Z,-0.21
2022-11-20T05:27:56.406Z,-0.21
2022-11-20T05:30:22.864Z,-0.20
2022-11-20T05:32:49.269Z,-0.19
2022-11-20T05:35:15.757Z,-0.25
2022-11-20T05:37:42.167Z,-0.26
2022-11-20T05:40:09.324Z,-0.31
2022-11-20T05:42:36.563Z,-0.38
2022-11-20T05:45:05.252Z,-0.39
2022-11-20T05:47:35.430Z,-0.42
2022-11-20T05:50:02.179Z,-0.45
2022-11-20T05:52:31.883Z,-0.45
2022-11-20T05:54:58.321Z,-0.46
2022-11-20T05:57:24.850Z,-0.45
2022-11-20T05:59:51.287Z,-0.47
2022-11-20T06:02:17.753Z,-0.48
2022-11-20T06:04:44.217Z,-0.49
2022-11-20T06:07:10.670Z,-0.48
2022-11-20T06:09:37.139Z,-0.52
2022-11-20T06:12:03.669Z,-0.53
2022-11-20T06:14:30.089Z,-0.57
2022-11-20T06:16:56.794Z,-0.60
2022-11-20T06:19:23.467Z,-0.61
2022-11-20T06:21:52.961Z,-0.63
2022-11-20T06:24:19.387Z,-0.66
2022-11-20T06:26:45.867Z,-0.68
2022-11-20T06:29:12.658Z,-0.69
2022-11-20T06:31:39.245Z,-0.72
2022-11-20T06:34:07.101Z,-0.72
2022-11-20T06:36:33.859Z,-0.74
2022-11-20T06:39:00.653Z,-0.72
2022-11-20T06:41:27.105Z,-0.73
2022-11-20T06:43:53.531Z,-0.74
2022-11-20T06:46:20.720Z,-0.74
2022-11-20T06:48:48.430Z,-0.75
2022-11-20T06:51:15.209Z,-0.76
2022-11-20T06:53:41.623Z,-0.76
2022-11-20T06:56:08.529Z,-0.78
2022-11-20T06:58:35.932Z,-0.79
2022-11-20T07:01:05.823Z,-0.86
2022-11-20T07:03:32.325Z,-0.91
2022-11-20T07:05:59.523Z,-0.93
2022-11-20T07:08:25.942Z,-0.91
2022-11-20T07:10:52.635Z,-0.87
2022-11-20T07:13:19.075Z,-0.81
2022-11-20T07:15:45.512Z,-0.75
2022-11-20T07:18:12.145Z,-0.71
2022-11-20T07:20:38.563Z,-0.66
2022-11-20T07:23:04.963Z,-0.62
2022-11-20T07:25:31.592Z,-0.58
2022-11-20T07:27:59.036Z,-0.56
2022-11-20T07:30:25.909Z,-0.52
2022-11-20T07:32:53.497Z,-0.47
2022-11-20T07:35:20.569Z,-0.49
2022-11-20T07:37:48.116Z,-0.46
2022-11-20T07:40:14.658Z,-0.41
2022-11-20T07:42:54.428Z,-0.36
2022-11-20T07:45:22.014Z,-0.30
2022-11-20T07:47:48.798Z,-0.23
2022-11-20T07:50:15.680Z,-0.16
2022-11-20T07:52:42.138Z,-0.14
2022-11-20T07:55:09.445Z,-0.12
2022-11-20T07:57:35.848Z,-0.11
2022-11-20T08:00:02.876Z,-0.07
2022-11-20T08:02:29.286Z,-0.04
2022-11-20T08:04:55.760Z,0.00
2022-11-20T08:07:22.224Z,0.04
2022-11-20T08:09:48.772Z,0.05
2022-11-20T08:12:38.382Z,0.08
2022-11-20T08:15:12.630Z,0.13
2022-11-20T08:17:39.726Z,0.16
2022-11-20T08:20:06.370Z,0.20
2022-11-20T08:22:32.847Z,0.24
2022-11-20T08:24:59.322Z,0.28
2022-11-20T08:27:25.729Z,0.34
2022-11-20T08:29:52.192Z,0.40
2022-11-20T08:32:18.595Z,0.45
2022-11-20T08:34:45.049Z,0.49
2022-11-20T08:37:11.452Z,0.52
2022-11-20T08:39:37.878Z,0.54
2022-11-20T08:42:08.212Z,0.58
2022-11-20T08:44:34.647Z,0.63
2022-11-20T08:47:01.332Z,0.67
2022-11-20T08:49:27.724Z,0.72
2022-11-20T08:51:56.087Z,0.77
2022-11-20T08:54:23.557Z,0.81
2022-11-20T08:56:50.009Z,0.84
2022-11-20T08:59:43.972Z,0.91
2022-11-20T09:02:02.934Z,0.95
2022-11-20T09:04:29.653Z,1.00
2022-11-20T09:06:56.069Z,1.03
2022-11-20T09:09:22.908Z,1.05
2022-11-20T09:11:50.880Z,1.08
2022-11-20T09:14:17.375Z,1.10
2022-11-20T09:16:46.038Z,1.11
2022-11-20T09:19:34.765Z,1.13
2022-11-20T09:22:00.016Z,1.15
2022-11-20T09:24:29.555Z,1.18
2022-11-20T09:26:55.982Z,1.22
2022-11-20T09:29:22.870Z,1.24
2022-11-20T09:31:49.663Z,1.29
2022-11-20T09:34:16.109Z,1.33
2022-11-20T09:36:42.542Z,1.36
2022-11-20T09:39:08.957Z,1.36
2022-11-20T09:42:00.089Z,1.38
2022-11-20T09:44:32.456Z,1.36
2022-11-20T09:47:17.943Z,1.40
2022-11-20T09:50:10.580Z,1.43
2022-11-20T09:53:03.311Z,1.41
2022-11-20T09:55:30.352Z,1.45
2022-11-20T09:57:57.403Z,1.47
2022-11-20T10:00:24.377Z,1.56
2022-11-20T10:03:03.309Z,1.60
2022-11-20T10:05:35.536Z,1.67
2022-11-20T10:08:20.240Z,1.70
2022-11-20T10:10:52.636Z,1.78
2022-11-20T10:13:41.994Z,1.85
2022-11-20T10:16:29.482Z,1.93
2022-11-20T10:19:11.055Z,1.97
2022-11-20T10:21:52.679Z,2.03
2022-11-20T10:24:30.892Z,2.06
2022-11-20T10:27:15.439Z,2.11
2022-11-20T10:29:45.305Z,2.17
2022-11-20T10:32:20.248Z,2.22
2022-11-20T10:35:00.597Z,2.29
2022-11-20T10:37:28.476Z,2.35
2022-11-20T10:40:11.194Z,2.34
2022-11-20T10:43:02.283Z,2.40
2022-11-20T10:45:38.022Z,2.45
2022-11-20T10:48:17.901Z,2.49
2022-11-20T10:51:02.603Z,2.53
2022-11-20T10:54:04.923Z,2.54
2022-11-20T10:56:51.493Z,2.60
2022-11-20T10:59:46.476Z,2.65
2022-11-20T11:02:30.878Z,2.70
2022-11-20T11:04:57.625Z,2.75
2022-11-20T11:07:31.825Z,2.81
2022-11-20T11:09:58.542Z,2.84
2022-11-20T11:12:27.007Z,2.84
2022-11-20T11:14:55.258Z,2.83
2022-11-20T11:17:26.480Z,2.81
2022-11-20T11:20:19.619Z,2.81
2022-11-20T11:22:47.798Z,2.86
2022-11-20T11:25:37.001Z,2.95
2022-11-20T11:28:06.008Z,2.98
2022-11-20T11:30:43.966Z,3.03
2022-11-20T11:33:12.312Z,3.08
2022-11-20T11:35:51.177Z,3.15
2022-11-20T11:38:22.427Z,3.25
2022-11-20T11:40:48.950Z,3.31
2022-11-20T11:43:42.082Z,3.39
2022-11-20T11:46:20.753Z,3.38
2022-11-20T11:49:02.220Z,3.40
2022-11-20T11:52:06.330Z,3.38
2022-11-20T11:54:54.846Z,3.38
2022-11-20T11:57:24.281Z,3.33
2022-11-20T12:00:04.735Z,3.30
2022-11-20T12:02:46.443Z,3.32
2022-11-20T12:05:44.836Z,3.26
2022-11-20T12:08:18.431Z,3.28
2022-11-20T12:10:56.858Z,3.34
2022-11-20T12:13:41.975Z,3.40
2022-11-20T12:16:13.806Z,3.44
2022-11-20T12:18:41.143Z,3.49
2022-11-20T12:21:13.683Z,3.54
2022-11-20T12:23:59.715Z,3.62
2022-11-20T12:26:53.985Z,3.72
2022-11-20T12:29:55.872Z,3.72
2022-11-20T12:32:49.466Z,3.76
2022-11-20T12:35:48.293Z,3.77
2022-11-20T12:38:40.449Z,3.80
2022-11-20T12:41:53.519Z,3.78
2022-11-20T12:44:50.504Z,3.82
2022-11-20T12:47:22.536Z,3.89
2022-11-20T12:49:59.160Z,3.93
2022-11-20T12:52:59.612Z,3.93
2022-11-20T12:55:44.791Z,3.95
2022-11-20T12:58:29.820Z,3.92
2022-11-20T13:01:37.968Z,3.94
2022-11-20T13:04:13.655Z,3.91
2022-11-20T13:06:42.530Z,3.86
2022-11-20T13:09:14.177Z,3.81
2022-11-20T13:12:05.298Z,3.73
2022-11-20T13:14:36.465Z,3.72
2022-11-20T13:17:12.373Z,3.66
2022-11-20T13:19:39.531Z,3.62
2022-11-20T13:22:05.963Z,3.57
2022-11-20T13:24:33.182Z,3.55
2022-11-20T13:27:20.391Z,3.51
2022-11-20T13:29:48.666Z,3.49
2022-11-20T13:32:17.722Z,3.47
2022-11-20T13:34:53.965Z,3.42
2022-11-20T13:37:37.719Z,3.40
2022-11-20T13:40:11.199Z,3.39
2022-11-20T13:42:41.206Z,3.35
2022-11-20T13:45:23.447Z,3.34
2022-11-20T13:47:51.290Z,3.28
2022-11-20T13:50:18.380Z,3.27
2022-11-20T13:52:58.973Z,3.22
2022-11-20T13:55:49.491Z,3.20
2022-11-20T13:58:48.197Z,3.18
2022-11-20T14:01:21.377Z,3.18
2022-11-20T14:04:05.740Z,3.15
2022-11-20T14:06:40.199Z,3.16
2022-11-20T14:09:12.654Z,3.14
2022-11-20T14:11:47.274Z,3.11
2022-11-20T14:14:18.576Z,3.09
2022-11-20T14:16:47.972Z,3.05
2022-11-20T14:19:20.352Z,3.04
2022-11-20T14:21:52.343Z,3.04
2022-11-20T14:24:24.637Z,3.02
2022-11-20T14:26:52.539Z,3.00
2022-11-20T14:29:21.093Z,3.01
2022-11-20T14:31:52.774Z,3.00
2022-11-20T14:34:26.593Z,2.97
2022-11-20T14:37:05.230Z,2.96
2022-11-20T14:39:34.385Z,2.95
2022-11-20T14:42:00.813Z,2.91
2022-11-20T14:44:45.649Z,2.89
2022-11-20T14:47:14.262Z,2.89
2022-11-20T14:49:41.014Z,2.86
2022-11-20T14:52:15.420Z,2.85
2022-11-20T14:54:46.889Z,2.83
2022-11-20T14:57:25.249Z,2.80
2022-11-20T14:59:51.707Z,2.74
2022-11-20T15:02:18.165Z,2.71
2022-11-20T15:05:00.391Z,2.66
2022-11-20T15:07:29.546Z,2.63
2022-11-20T15:10:03.477Z,2.57
2022-11-20T15:12:31.809Z,2.50
2022-11-20T15:14:58.471Z,2.46
2022-11-20T15:17:25.317Z,2.47
2022-11-20T15:19:52.645Z,2.44
2022-11-20T15:22:19.154Z,2.41
2022-11-20T15:24:46.182Z,2.40
2022-11-20T15:27:13.045Z,2.35
2022-11-20T15:29:39.526Z,2.34
2022-11-20T15:32:10.509Z,2.30
2022-11-20T15:34:39.707Z,2.25
2022-11-20T15:37:06.121Z,2.22
2022-11-20T15:39:32.516Z,2.21
2022-11-20T15:41:58.944Z,2.19
2022-11-20T15:44:25.468Z,2.16
2022-11-20T15:46:52.211Z,2.15
2022-11-20T15:49:19.811Z,2.15
2022-11-20T15:51:48.905Z,2.12
2022-11-20T15:54:24.702Z,2.09
2022-11-20T15:56:54.233Z,2.06
2022-11-20T15:59:20.939Z,2.04
2022-11-20T16:01:47.469Z,2.02
2022-11-20T16:04:15.445Z,1.97
2022-11-20T16:06:41.930Z,1.93
2022-11-20T16:09:08.363Z,1.90
2022-11-20T16:11:37.377Z,1.87
2022-11-20T16:14:23.651Z,1.83
2022-11-20T16:16:50.224Z,1.80
2022-11-20T16:19:16.854Z,1.77
2022-11-20T16:21:43.333Z,1.75
2022-11-20T16:24:14.695Z,1.73
2022-11-20T16:26:41.497Z,1.71
2022-11-20T16:29:08.143Z,1.69
2022-11-20T16:31:35.028Z,1.66
2022-11-20T16:34:10.058Z,1.63
2022-11-20T16:36:40.651Z,1.59
2022-11-20T16:39:07.092Z,1.55
2022-11-20T16:41:35.253Z,1.54
2022-11-20T16:44:03.952Z,1.49
2022-11-20T16:46:31.576Z,1.47
2022-11-20T16:49:02.939Z,1.46
2022-11-20T16:51:30.699Z,1.43
2022-11-20T16:53:57.513Z,1.41
2022-11-20T16:56:25.936Z,1.40
2022-11-20T16:58:54.734Z,1.40
2022-11-20T17:01:22.529Z,1.39
2022-11-20T17:03:57.758Z,1.39
2022-11-20T17:06:27.275Z,1.39
2022-11-20T17:08:56.012Z,1.39
2022-11-20T17:11:22.943Z,1.40
2022-11-20T17:13:49.755Z,1.40
2022-11-20T17:16:21.195Z,1.42
2022-11-20T17:18:49.858Z,1.43
2022-11-20T17:21:17.391Z,1.43
2022-11-20T17:23:45.084Z,1.45
2022-11-20T17:26:14.656Z,1.45
2022-11-20T17:28:41.425Z,1.45
2022-11-20T17:31:10.643Z,1.45
2022-11-20T17:33:38.351Z,1.46
2022-11-20T17:36:06.293Z,1.44
2022-11-20T17:38:32.743Z,1.44
2022-11-20T17:41:09.915Z,1.44
2022-11-20T17:43:37.091Z,1.43
2022-11-20T17:46:07.031Z,1.41
2022-11-20T17:48:34.411Z,1.41
2022-11-20T17:51:02.013Z,1.40
2022-11-20T17:53:29.538Z,1.40
2022-11-20T17:56:17.680Z,1.40
2022-11-20T17:58:44.121Z,1.37
2022-11-20T18:01:11.268Z,1.34
2022-11-20T18:03:38.077Z,1.30
2022-11-20T18:06:11.529Z,1.28
2022-11-20T18:08:38.252Z,1.22
2022-11-20T18:11:19.484Z,1.17
2022-11-20T18:14:06.895Z,1.14
2022-11-20T18:16:35.972Z,1.10
2022-11-20T18:19:02.443Z,1.07
2022-11-20T18:21:30.245Z,1.03
2022-11-20T18:23:57.183Z,1.00
2022-11-20T18:26:24.287Z,0.96
2022-11-20T18:28:51.292Z,0.93
2022-11-20T18:31:18.107Z,0.90
2022-11-20T18:33:44.787Z,0.88
2022-11-20T18:36:15.713Z,0.87
2022-11-20T18:38:46.806Z,0.84
2022-11-20T18:41:33.320Z,0.83
2022-11-20T18:44:22.646Z,0.81
2022-11-20T18:46:49.201Z,0.77
2022-11-20T18:49:15.844Z,0.72
2022-11-20T18:51:44.137Z,0.71
2022-11-20T18:54:11.657Z,0.69
2022-11-20T18:56:38.345Z,0.67
2022-11-20T18:59:05.982Z,0.66
2022-11-20T19:01:32.595Z,0.64
2022-11-20T19:03:59.069Z,0.61
2022-11-20T19:06:26.297Z,0.58
2022-11-20T19:08:53.973Z,0.55
2022-11-20T19:11:20.392Z,0.55
2022-11-20T19:13:46.791Z,0.53
2022-11-20T19:16:15.772Z,0.52
2022-11-20T19:18:43.721Z,0.50
2022-11-20T19:21:12.144Z,0.47
2022-11-20T19:23:39.070Z,0.46
2022-11-20T19:26:06.161Z,0.44
2022-11-20T19:28:36.715Z,0.41
2022-11-20T19:31:04.410Z,0.40
2022-11-20T19:33:31.487Z,0.39
2022-11-20T19:35:58.539Z,0.38
2022-11-20T19:38:25.304Z,0.36
2022-11-20T19:40:51.709Z,0.35
2022-11-20T19:43:18.113Z,0.35
2022-11-20T19:45:44.520Z,0.32
2022-11-20T19:48:10.940Z,0.30
2022-11-20T19:50:37.387Z,0.27
2022-11-20T19:53:03.876Z,0.27
2022-11-20T19:55:30.290Z,0.26
2022-11-20T19:57:56.707Z,0.25
2022-11-20T20:00:29.540Z,0.23
2022-11-20T20:02:57.449Z,0.24
2022-11-20T20:05:24.049Z,0.23
2022-11-20T20:07:50.453Z,0.23
2022-11-20T20:10:18.185Z,0.23
2022-11-20T20:12:44.603Z,0.26
2022-11-20T20:15:11.087Z,0.28
2022-11-20T20:17:37.579Z,0.32
2022-11-20T20:20:04.346Z,0.32
2022-11-20T20:22:30.761Z,0.32
2022-11-20T20:24:57.160Z,0.34
2022-11-20T20:27:23.579Z,0.35
2022-11-20T20:29:49.981Z,0.36
2022-11-20T20:32:16.379Z,0.37
2022-11-20T20:34:42.781Z,0.38
2022-11-20T20:37:09.197Z,0.37
2022-11-20T20:39:35.648Z,0.37
2022-11-20T20:42:02.074Z,0.36
2022-11-20T20:44:47.079Z,0.39
2022-11-20T20:47:13.478Z,0.38
2022-11-20T20:49:43.030Z,0.39
2022-11-20T20:52:10.344Z,0.40
2022-11-20T20:54:37.001Z,0.41
2022-11-20T20:57:03.489Z,0.42
2022-11-20T20:59:29.879Z,0.44
2022-11-20T21:01:56.306Z,0.45
2022-11-20T21:04:22.826Z,0.47
2022-11-20T21:06:49.261Z,0.48
2022-11-20T21:09:15.673Z,0.49
2022-11-20T21:11:42.088Z,0.49
2022-11-20T21:14:08.498Z,0.51
2022-11-20T21:16:41.084Z,0.52
2022-11-20T21:19:07.920Z,0.51
2022-11-20T21:21:52.911Z,0.54
2022-11-20T21:24:19.403Z,0.55
2022-11-20T21:26:45.853Z,0.56
2022-11-20T21:29:12.506Z,0.59
2022-11-20T21:31:39.155Z,0.62
2022-11-20T21:34:05.561Z,0.64
2022-11-20T21:36:31.979Z,0.66
2022-11-20T21:38:59.465Z,0.69
2022-11-20T21:41:27.434Z,0.70
2022-11-20T21:44:24.043Z,0.71
2022-11-20T21:46:43.368Z,0.74
2022-11-20T21:49:10.516Z,0.74
2022-11-20T21:51:37.038Z,0.76
2022-11-20T21:54:03.779Z,0.77
2022-11-20T21:56:30.215Z,0.78
2022-11-20T21:58:56.690Z,0.81
2022-11-20T22:01:25.916Z,0.82
2022-11-20T22:03:56.689Z,0.83
2022-11-20T22:06:24.422Z,0.87
2022-11-20T22:08:51.022Z,0.88
2022-11-20T22:11:19.835Z,0.91
2022-11-20T22:14:05.418Z,0.92
2022-11-20T22:16:33.951Z,0.94
2022-11-20T22:19:00.728Z,0.96
2022-11-20T22:21:29.033Z,0.98
2022-11-20T22:23:55.789Z,1.00
2022-11-20T22:26:24.903Z,1.03
2022-11-20T22:28:52.998Z,1.05
2022-11-20T22:31:20.551Z,1.06
2022-11-20T22:33:47.099Z,1.08
2022-11-20T22:36:18.857Z,1.09
2022-11-20T22:38:45.468Z,1.10
2022-11-20T22:41:14.064Z,1.12
2022-11-20T22:43:41.588Z,1.14
2022-11-20T22:46:17.967Z,1.15
2022-11-20T22:48:52.222Z,1.17
2022-11-20T22:51:20.248Z,1.20
2022-11-20T22:53:47.129Z,1.22
2022-11-20T22:56:13.915Z,1.23
2022-11-20T22:58:42.021Z,1.23
2022-11-20T23:01:18.480Z,1.24
2022-11-20T23:03:47.035Z,1.25
2022-11-20T23:06:14.099Z,1.27
2022-11-20T23:08:41.556Z,1.26
2022-11-20T23:11:10.711Z,1.28
2022-11-20T23:13:37.222Z,1.26
2022-11-20T23:16:12.497Z,1.23
2022-11-20T23:18:39.219Z,1.22
2022-11-20T23:21:12.631Z,1.22
2022-11-20T23:23:39.115Z,1.22
2022-11-20T23:26:10.718Z,1.22
2022-11-20T23:28:37.673Z,1.23
2022-11-20T23:31:05.273Z,1.23
2022-11-20T23:33:31.985Z,1.24
2022-11-20T23:35:58.397Z,1.24
2022-11-20T23:38:24.796Z,1.26
2022-11-20T23:40:52.300Z,1.24
2022-11-20T23:43:20.615Z,1.24
2022-11-20T23:45:51.847Z,1.24
2022-11-20T23:48:19.104Z,1.24
2022-11-20T23:50:45.736Z,1.24
2022-11-20T23:53:14.149Z,1.23
2022-11-20T23:55:51.668Z,1.23
2022-11-20T23:58:19.378Z,1.24
